Terminal Aerodrome Forecast
Issued by NWS Cleveland, OH

Home | Current Version | Previous Version | Text Only | Print | Product List | Glossary Off
Versions: 1 2 3 4 5 6 7 8 9 10 11 12 13 14 15 16 17 18 19 20 21 22 23 24 25 26

149
FTUS41 KCLE 172340
TAFCLE
TAF
KCLE 172340Z 1800/1906 17012KT P6SM OVC150
     FM180500 18012G20KT P6SM VCSH OVC070 WS020/20040KT
     FM180800 18012G20KT 6SM -SHRA BR OVC070
      TEMPO 1808/1810 4SM RA BR OVC020
     FM181000 19015G25KT 4SM SHRA BR VCTS OVC015CB
     FM181300 20018G28KT 5SM -SHRA BR VCTS OVC007CB
     FM181800 20018G30KT 3SM SHRA BR VCTS OVC003CB
     FM190000 24020G35KT 4SM -SHRA BR OVC005
     FM190300 31025G40KT 5SM -SHRA BR OVC007=

USA.gov is the U.S. government's official web portal to all federal, state and local government web resources and services.